Time;durP1;ratioP1;P1;durP2;ratioP2;P2;SDS_P1;SDS_P2;PMS_P1;PMS_P2;Temp;Humidity;BMP_temperature;BMP_pressure;BME280_temperature;BME280_humidity;BME280_pressure;Samples;Min_cycle;Max_cycle;Signal;HPM_P1;HPM_P2
2023/04/23 00:02:21;;;;;;;33.58;25.27;;;9.90;99.90;;;;;;7293088;32;20919;-55
2023/04/23 00:06:25;;;;;;;30.55;23.10;;;9.80;99.90;;;;;;7311943;32;20544;-55
2023/04/23 00:10:27;;;;;;;34.72;25.30;;;9.80;99.90;;;;;;7304958;32;20261;-57
2023/04/23 00:14:29;;;;;;;37.50;25.08;;;9.70;99.90;;;;;;7305327;32;20138;-55
2023/04/23 00:18:31;;;;;;;37.53;26.52;;;9.60;99.90;;;;;;7305649;32;20261;-55
2023/04/23 00:22:33;;;;;;;34.38;26.00;;;9.60;99.90;;;;;;7302443;32;20206;-55
2023/04/23 00:26:34;;;;;;;34.30;26.60;;;9.60;99.90;;;;;;7305901;32;20334;-55
2023/04/23 00:30:36;;;;;;;35.38;26.62;;;9.60;99.90;;;;;;7302164;32;20179;-55
2023/04/23 00:34:38;;;;;;;36.22;26.37;;;9.50;99.90;;;;;;7304295;32;20229;-56
2023/04/23 00:38:40;;;;;;;37.38;26.83;;;9.50;99.90;;;;;;7304285;32;20785;-55
2023/04/23 00:42:43;;;;;;;38.08;28.40;;;9.60;99.90;;;;;;7299292;32;20128;-55
2023/04/23 00:46:45;;;;;;;40.22;27.90;;;9.70;99.90;;;;;;7306999;32;20525;-55
2023/04/23 00:50:47;;;;;;;32.65;25.12;;;9.60;99.90;;;;;;7304577;32;20129;-56
2023/04/23 00:54:49;;;;;;;36.70;26.90;;;9.50;99.90;;;;;;7309644;32;20104;-57
2023/04/23 00:58:51;;;;;;;34.65;25.60;;;9.50;99.90;;;;;;7303998;32;20863;-55
2023/04/23 01:02:53;;;;;;;33.60;26.10;;;9.50;99.90;;;;;;7305416;32;20214;-55
2023/04/23 01:06:56;;;;;;;33.20;25.92;;;9.50;99.90;;;;;;7304679;32;20137;-55
2023/04/23 01:10:59;;;;;;;36.90;26.65;;;9.50;99.90;;;;;;7302616;32;20210;-55
2023/04/23 01:15:02;;;;;;;34.75;25.65;;;9.40;99.90;;;;;;7297374;32;20578;-55
2023/04/23 01:19:06;;;;;;;35.15;26.52;;;9.40;99.90;;;;;;7309021;32;20199;-55
2023/04/23 01:23:08;;;;;;;34.60;25.98;;;9.40;99.90;;;;;;7301250;32;20103;-54
2023/04/23 01:27:10;;;;;;;33.67;24.77;;;9.40;99.90;;;;;;7300679;32;20211;-54
2023/04/23 01:31:13;;;;;;;35.83;26.65;;;9.30;99.90;;;;;;7305541;32;20192;-54
2023/04/23 01:35:15;;;;;;;36.67;26.42;;;9.40;99.90;;;;;;7303198;32;20206;-55
2023/04/23 01:39:17;;;;;;;35.78;25.95;;;9.30;99.90;;;;;;7303310;32;20117;-55
2023/04/23 01:43:19;;;;;;;34.13;25.15;;;9.30;99.90;;;;;;7302795;32;20250;-54
2023/04/23 01:47:21;;;;;;;34.42;25.65;;;9.20;99.90;;;;;;7302694;32;20243;-55
2023/04/23 01:51:25;;;;;;;37.40;26.20;;;9.10;99.90;;;;;;7301376;32;20190;-55
2023/04/23 01:55:27;;;;;;;35.22;25.83;;;9.10;99.90;;;;;;7302566;32;20797;-56
2023/04/23 01:59:29;;;;;;;32.38;24.83;;;9.20;99.90;;;;;;7308663;32;20143;-55
2023/04/23 02:03:32;;;;;;;38.80;28.52;;;9.00;99.90;;;;;;7295811;32;20275;-55
2023/04/23 02:07:35;;;;;;;35.03;25.75;;;9.00;99.90;;;;;;7305937;32;20234;-54
2023/04/23 02:11:37;;;;;;;41.72;29.17;;;9.00;99.90;;;;;;7303537;32;20139;-56
2023/04/23 02:15:39;;;;;;;40.60;29.35;;;9.00;99.90;;;;;;7303434;32;20116;-55
2023/04/23 02:19:41;;;;;;;40.38;28.67;;;8.90;99.90;;;;;;7302019;32;20713;-55
2023/04/23 02:23:43;;;;;;;38.33;27.85;;;9.00;99.90;;;;;;7301807;32;20144;-55
2023/04/23 02:27:44;;;;;;;38.47;27.85;;;8.90;99.90;;;;;;7299539;32;20112;-55
2023/04/23 02:31:46;;;;;;;40.20;29.02;;;8.80;99.90;;;;;;7301242;32;20246;-55
2023/04/23 02:35:48;;;;;;;38.42;28.02;;;8.80;99.90;;;;;;7299449;32;20134;-55
2023/04/23 02:39:51;;;;;;;39.20;27.60;;;8.70;99.90;;;;;;7299873;32;20524;-55
2023/04/23 02:43:52;;;;;;;38.15;27.67;;;8.60;99.90;;;;;;7304615;32;20232;-54
2023/04/23 02:47:54;;;;;;;38.78;27.73;;;8.60;99.90;;;;;;7304846;32;20143;-55
2023/04/23 02:51:56;;;;;;;37.35;27.05;;;8.50;99.90;;;;;;7307956;32;20172;-55
2023/04/23 02:55:58;;;;;;;48.20;31.37;;;8.60;99.90;;;;;;7303984;32;20133;-55
2023/04/23 03:00:00;;;;;;;44.90;30.15;;;8.70;99.90;;;;;;7300252;32;20129;-55
2023/04/23 03:04:02;;;;;;;42.53;30.05;;;8.80;99.90;;;;;;7301779;32;20330;-55
2023/04/23 03:08:04;;;;;;;43.05;31.60;;;8.90;99.90;;;;;;7307925;32;20725;-54
2023/04/23 03:12:06;;;;;;;42.17;29.92;;;9.00;99.90;;;;;;7298952;32;20155;-54
2023/04/23 03:16:08;;;;;;;40.45;30.62;;;9.10;99.90;;;;;;7300405;32;20115;-55
2023/04/23 03:20:10;;;;;;;46.42;32.20;;;9.20;99.90;;;;;;7305880;32;20147;-55
2023/04/23 03:24:13;;;;;;;45.70;31.20;;;9.20;99.90;;;;;;7301513;32;20198;-55
2023/04/23 03:28:15;;;;;;;42.30;30.30;;;9.30;99.90;;;;;;7301687;32;20202;-55
2023/04/23 03:32:17;;;;;;;40.00;29.25;;;9.40;99.90;;;;;;7302026;32;20234;-54
2023/04/23 03:36:19;;;;;;;39.92;29.48;;;9.40;99.90;;;;;;7305358;32;20187;-55
2023/04/23 03:40:21;;;;;;;44.53;31.10;;;9.40;99.90;;;;;;7310229;32;20223;-54
2023/04/23 03:44:22;;;;;;;41.90;30.37;;;9.40;99.90;;;;;;7310443;32;20384;-55
2023/04/23 03:48:25;;;;;;;44.70;32.00;;;9.40;99.90;;;;;;7302733;32;20135;-55
2023/04/23 03:52:26;;;;;;;41.20;31.00;;;9.50;99.90;;;;;;7303008;32;20257;-55
2023/04/23 03:56:28;;;;;;;39.15;29.60;;;9.50;99.90;;;;;;7312498;32;20222;-55
2023/04/23 04:00:29;;;;;;;41.00;29.95;;;9.40;99.90;;;;;;7304310;32;20126;-54
2023/04/23 04:04:32;;;;;;;37.30;28.12;;;9.40;99.90;;;;;;7311171;32;20266;-54
2023/04/23 04:08:34;;;;;;;38.25;28.35;;;9.30;99.90;;;;;;7303871;32;21359;-55
2023/04/23 04:12:36;;;;;;;41.47;29.65;;;9.30;99.90;;;;;;7304256;32;20183;-55
2023/04/23 04:16:38;;;;;;;42.22;30.67;;;9.20;99.90;;;;;;7306259;32;20746;-55
2023/04/23 04:20:43;;;;;;;38.13;29.80;;;9.20;99.90;;;;;;7299153;32;20107;-55
2023/04/23 04:24:46;;;;;;;40.00;30.12;;;9.20;99.90;;;;;;7302169;32;20297;-56
2023/04/23 04:28:48;;;;;;;38.95;30.30;;;9.20;99.90;;;;;;7306512;32;20112;-56
2023/04/23 04:32:49;;;;;;;39.25;30.10;;;9.20;99.90;;;;;;7312782;32;20135;-55
2023/04/23 04:36:52;;;;;;;44.30;29.73;;;9.20;99.90;;;;;;7306630;32;20190;-55
2023/04/23 04:40:57;;;;;;;38.70;29.65;;;9.30;99.90;;;;;;7305792;32;20566;-55
2023/04/23 04:44:59;;;;;;;39.83;29.92;;;9.30;99.90;;;;;;7312984;32;20121;-55
2023/04/23 04:49:01;;;;;;;35.72;27.85;;;9.30;99.90;;;;;;7300604;32;20200;-55
2023/04/23 04:53:02;;;;;;;39.17;30.17;;;9.50;99.90;;;;;;7308855;32;20127;-55
2023/04/23 04:57:05;;;;;;;38.47;28.62;;;9.50;99.90;;;;;;7304909;32;20314;-54
2023/04/23 05:01:07;;;;;;;34.63;27.50;;;9.70;99.90;;;;;;7309659;32;20504;-55
2023/04/23 05:05:08;;;;;;;36.28;26.70;;;9.80;99.90;;;;;;7310064;32;20583;-54
2023/04/23 05:09:10;;;;;;;34.60;27.62;;;10.00;99.90;;;;;;7309587;32;20793;-55
2023/04/23 05:13:12;;;;;;;35.67;27.48;;;10.10;99.90;;;;;;7310226;32;20230;-54
2023/04/23 05:17:14;;;;;;;32.42;26.25;;;10.20;99.90;;;;;;7302523;32;20195;-54
2023/04/23 05:21:15;;;;;;;29.67;23.33;;;10.30;99.90;;;;;;7303870;32;20191;-56
2023/04/23 05:25:17;;;;;;;28.15;23.12;;;10.40;99.90;;;;;;7303032;32;20141;-54
2023/04/23 05:29:19;;;;;;;35.53;26.58;;;10.50;99.90;;;;;;7298062;32;20112;-55
2023/04/23 05:33:20;;;;;;;27.50;22.20;;;10.60;99.90;;;;;;7301790;32;20236;-54
2023/04/23 05:37:22;;;;;;;26.67;21.75;;;10.60;99.90;;;;;;7306612;32;20507;-54
2023/04/23 05:41:24;;;;;;;28.20;22.00;;;10.70;99.90;;;;;;7306509;32;20169;-54
2023/04/23 05:45:27;;;;;;;26.17;20.75;;;10.70;99.90;;;;;;7303222;32;20137;-54
2023/04/23 05:49:28;;;;;;;21.90;18.85;;;10.80;99.90;;;;;;7314698;32;20162;-55
2023/04/23 05:53:30;;;;;;;20.27;18.10;;;10.90;99.90;;;;;;7318406;32;20135;-56
2023/04/23 05:57:32;;;;;;;25.90;18.75;;;10.90;99.90;;;;;;7301955;32;20271;-57
2023/04/23 06:01:34;;;;;;;21.85;19.20;;;11.00;99.90;;;;;;7299780;32;20117;-57
2023/04/23 06:05:37;;;;;;;22.87;18.15;;;11.10;99.90;;;;;;7298248;32;20130;-58
2023/04/23 06:09:38;;;;;;;19.67;17.55;;;11.10;99.90;;;;;;7296716;32;20161;-57
2023/04/23 06:13:41;;;;;;;18.85;15.85;;;11.10;99.90;;;;;;7302569;32;20189;-57
2023/04/23 06:17:44;;;;;;;21.67;17.20;;;11.30;99.90;;;;;;7298213;32;20138;-57
2023/04/23 06:21:47;;;;;;;18.62;16.00;;;11.30;99.90;;;;;;7297891;32;20131;-58
2023/04/23 06:25:48;;;;;;;20.25;16.85;;;11.40;99.90;;;;;;7303266;32;20161;-57
2023/04/23 06:29:50;;;;;;;17.23;14.93;;;11.40;99.90;;;;;;7299046;32;20659;-58
2023/04/23 06:33:52;;;;;;;18.30;15.73;;;11.60;99.90;;;;;;7293545;32;20229;-56
2023/04/23 06:37:53;;;;;;;18.92;15.38;;;11.70;99.90;;;;;;7295587;32;20207;-56
2023/04/23 06:41:56;;;;;;;18.42;15.25;;;11.90;99.90;;;;;;7298064;32;20213;-56
2023/04/23 06:45:58;;;;;;;18.65;15.27;;;12.00;99.90;;;;;;7298404;32;20111;-58
2023/04/23 06:50:01;;;;;;;18.35;14.75;;;12.10;99.90;;;;;;7294446;32;20131;-57
2023/04/23 06:54:02;;;;;;;16.35;14.60;;;12.40;99.90;;;;;;7294836;32;20230;-56
2023/04/23 06:58:06;;;;;;;18.83;14.55;;;12.60;99.90;;;;;;7301599;32;20144;-56
2023/04/23 07:02:08;;;;;;;16.73;13.32;;;12.70;99.90;;;;;;7296485;32;20131;-56
2023/04/23 07:06:10;;;;;;;14.93;13.32;;;12.80;99.90;;;;;;7294810;32;20248;-57
2023/04/23 07:10:12;;;;;;;15.45;13.07;;;12.90;99.90;;;;;;7302223;32;20230;-57
2023/04/23 07:14:16;;;;;;;15.73;13.10;;;13.00;99.90;;;;;;7302762;32;20257;-56
2023/04/23 07:18:18;;;;;;;13.90;12.27;;;13.10;99.90;;;;;;7300098;32;20107;-56
2023/04/23 07:22:20;;;;;;;13.40;11.43;;;13.30;99.90;;;;;;7303547;32;20120;-56
2023/04/23 07:26:23;;;;;;;13.93;12.35;;;13.50;99.90;;;;;;7302487;32;20322;-57
2023/04/23 07:30:26;;;;;;;11.68;10.45;;;13.60;99.90;;;;;;7309861;32;20130;-56
2023/04/23 07:34:28;;;;;;;14.13;10.90;;;13.70;99.90;;;;;;7310702;32;20115;-57
2023/04/23 07:38:29;;;;;;;13.02;10.82;;;13.80;99.90;;;;;;7304304;32;20157;-57
2023/04/23 07:42:31;;;;;;;11.77;9.80;;;13.90;99.90;;;;;;7305785;32;20108;-57
2023/04/23 07:46:33;;;;;;;13.60;9.90;;;13.90;99.90;;;;;;7311059;32;20100;-57
2023/04/23 07:50:35;;;;;;;11.60;9.43;;;13.80;99.90;;;;;;7304656;32;20111;-57
2023/04/23 07:54:36;;;;;;;9.75;8.75;;;13.80;99.90;;;;;;7306372;32;20204;-58
2023/04/23 07:58:38;;;;;;;9.55;7.82;;;14.10;99.90;;;;;;7314369;32;20571;-58
2023/04/23 08:02:40;;;;;;;7.85;6.35;;;14.10;99.90;;;;;;7303467;32;20808;-59
2023/04/23 08:06:42;;;;;;;8.27;6.05;;;14.40;99.90;;;;;;7304668;32;20980;-59
2023/04/23 08:10:45;;;;;;;10.52;6.25;;;14.60;99.90;;;;;;7302138;32;20447;-58
2023/04/23 08:14:46;;;;;;;8.02;6.43;;;14.70;99.90;;;;;;7307700;32;20641;-57
2023/04/23 08:18:48;;;;;;;9.48;6.47;;;15.10;99.90;;;;;;7303193;32;21153;-57
2023/04/23 08:23:05;;;;;;;9.25;6.25;;;15.30;99.90;;;;;;7303931;32;20099;-57
2023/04/23 08:27:07;;;;;;;9.30;5.87;;;15.30;99.90;;;;;;7306033;32;20585;-58
2023/04/23 08:31:09;;;;;;;9.25;5.28;;;15.20;99.90;;;;;;7308530;32;20170;-58
2023/04/23 08:35:26;;;;;;;6.65;4.87;;;15.20;99.90;;;;;;7303775;32;20123;-57
2023/04/23 08:39:31;;;;;;;6.53;4.20;;;15.30;99.90;;;;;;7298083;32;20744;-58
2023/04/23 08:44:02;;;;;;;8.45;4.62;;;15.20;99.90;;;;;;7295811;32;20184;-56
2023/04/23 08:48:04;;;;;;;7.43;4.97;;;15.30;99.90;;;;;;7297150;32;20129;-55
2023/04/23 08:52:16;;;;;;;8.80;4.57;;;16.00;99.90;;;;;;7298597;32;20139;-52
2023/04/23 08:56:20;;;;;;;6.10;4.20;;;17.40;99.90;;;;;;7302726;32;20138;-59
2023/04/23 09:00:22;;;;;;;5.97;3.35;;;18.20;99.90;;;;;;7300301;32;20608;-60
2023/04/23 09:04:24;;;;;;;6.03;3.35;;;18.20;99.90;;;;;;7297157;32;20129;-57
2023/04/23 09:08:26;;;;;;;7.43;3.72;;;18.70;99.90;;;;;;7299376;32;20112;-56
2023/04/23 09:12:28;;;;;;;4.72;3.25;;;18.70;99.90;;;;;;7297264;32;20403;-57
2023/04/23 09:16:30;;;;;;;5.75;3.08;;;18.50;99.90;;;;;;7297404;32;20230;-57
2023/04/23 09:20:32;;;;;;;6.57;2.85;;;19.10;99.90;;;;;;7296087;32;20221;-57
2023/04/23 09:24:34;;;;;;;6.07;2.67;;;18.70;99.90;;;;;;7297142;32;20448;-57
2023/04/23 09:28:36;;;;;;;3.00;2.12;;;19.20;99.90;;;;;;7293599;32;20200;-57
2023/04/23 09:32:42;;;;;;;5.65;2.17;;;19.70;99.90;;;;;;7297614;32;20132;-60
2023/04/23 09:36:48;;;;;;;3.03;1.95;;;20.00;99.90;;;;;;7298327;32;20222;-58
2023/04/23 09:40:49;;;;;;;5.70;2.05;;;19.60;99.90;;;;;;7295659;32;20618;-57
2023/04/23 09:45:08;;;;;;;3.70;1.90;;;19.40;99.90;;;;;;7295899;32;20120;-57
2023/04/23 09:49:11;;;;;;;4.68;2.00;;;19.20;99.90;;;;;;7295914;32;20199;-57
2023/04/23 09:53:13;;;;;;;3.67;1.80;;;19.10;99.90;;;;;;7294133;32;20621;-56
2023/04/23 09:57:15;;;;;;;4.95;1.65;;;19.00;99.90;;;;;;7304489;32;20112;-56
2023/04/23 10:01:17;;;;;;;4.55;1.90;;;19.00;99.90;;;;;;7307982;32;20191;-56
2023/04/23 10:05:20;;;;;;;4.75;1.90;;;19.10;99.90;;;;;;7299739;32;20134;-56
2023/04/23 10:09:30;;;;;;;3.67;2.10;;;19.10;99.90;;;;;;7300844;32;20356;-56
2023/04/23 10:13:33;;;;;;;2.80;1.67;;;19.00;99.90;;;;;;7299510;32;20186;-56
2023/04/23 10:17:35;;;;;;;4.68;1.90;;;18.40;99.90;;;;;;7290462;32;20108;-57
2023/04/23 10:21:37;;;;;;;3.55;1.60;;;18.30;99.90;;;;;;7291230;32;20206;-56
2023/04/23 10:25:55;;;;;;;3.45;1.60;;;17.70;99.90;;;;;;7290446;32;20159;-56
2023/04/23 10:29:57;;;;;;;4.03;2.03;;;17.60;99.90;;;;;;7294410;32;20859;-56
2023/04/23 10:34:00;;;;;;;3.33;1.60;;;17.20;99.90;;;;;;7293190;32;20142;-57
2023/04/23 10:38:03;;;;;;;4.30;1.90;;;16.80;99.90;;;;;;7291200;32;20144;-59
2023/04/23 10:42:05;;;;;;;3.70;2.28;;;16.70;99.90;;;;;;7291392;32;20115;-57
2023/04/23 10:46:28;;;;;;;7.70;2.40;;;16.50;99.90;;;;;;7296520;32;20625;-57
2023/04/23 10:50:35;;;;;;;10.18;2.97;;;16.10;99.90;;;;;;7295051;32;20267;-56
2023/04/23 10:54:36;;;;;;;9.75;2.87;;;15.30;99.90;;;;;;7291527;32;20245;-57
2023/04/23 10:58:49;;;;;;;3.95;1.80;;;14.20;99.90;;;;;;7288851;32;20229;-57
2023/04/23 11:02:52;;;;;;;3.37;1.73;;;13.40;99.90;;;;;;7296620;32;20352;-55
2023/04/23 11:06:55;;;;;;;6.30;2.10;;;13.10;99.90;;;;;;7290914;32;20234;-56
2023/04/23 11:10:58;;;;;;;5.70;2.50;;;12.90;99.90;;;;;;7287532;32;20209;-56
2023/04/23 11:15:11;;;;;;;8.48;2.42;;;12.80;99.90;;;;;;7291344;32;20112;-56
2023/04/23 11:19:14;;;;;;;8.38;2.22;;;12.80;99.90;;;;;;7292880;32;20257;-57
2023/04/23 11:23:33;;;;;;;6.27;2.70;;;12.90;99.90;;;;;;7293209;32;20100;-59
2023/04/23 11:27:47;;;;;;;7.45;3.90;;;13.10;99.90;;;;;;7292353;32;20123;-55
2023/04/23 11:31:49;;;;;;;5.82;2.75;;;13.90;99.90;;;;;;7288725;32;20155;-58
2023/04/23 11:36:11;;;;;;;4.82;2.28;;;14.60;99.90;;;;;;7291990;32;20493;-55
2023/04/23 11:40:18;;;;;;;4.72;1.87;;;15.00;99.90;;;;;;7288477;32;20202;-59
2023/04/23 11:44:20;;;;;;;;;;;15.30;99.90;;;;;;7302321;32;20259;-55
2023/04/23 11:48:22;;;;;;;5.18;2.10;;;15.40;99.90;;;;;;7298293;32;20105;-56
2023/04/23 11:52:25;;;;;;;7.03;1.73;;;15.20;99.90;;;;;;7300636;32;20210;-58
2023/04/23 11:56:30;;;;;;;5.47;1.45;;;15.40;99.90;;;;;;7302714;32;20169;-58
2023/04/23 12:00:32;;;;;;;6.80;1.65;;;15.50;99.90;;;;;;7309242;32;20220;-58
2023/04/23 12:04:33;;;;;;;5.05;1.70;;;15.30;99.90;;;;;;7312240;32;20575;-57
2023/04/23 12:08:36;;;;;;;5.68;1.40;;;15.00;99.90;;;;;;7307148;32;22404;-56
2023/04/23 12:12:38;;;;;;;3.42;1.33;;;14.90;99.90;;;;;;7296760;32;20127;-57
2023/04/23 12:16:51;;;;;;;4.87;1.20;;;14.90;99.90;;;;;;7297926;32;20201;-64
2023/04/23 12:20:52;;;;;;;4.70;1.17;;;14.90;99.90;;;;;;7305584;32;20112;-63
2023/04/23 12:24:54;;;;;;;1.73;0.80;;;15.00;99.90;;;;;;7304035;32;20214;-56
2023/04/23 12:28:58;;;;;;;3.55;0.90;;;15.40;99.90;;;;;;7302603;32;20242;-56
2023/04/23 12:33:05;;;;;;;5.03;1.10;;;16.00;99.90;;;;;;7302950;32;20167;-56
2023/04/23 12:37:07;;;;;;;5.55;0.80;;;17.60;99.90;;;;;;7304426;32;20135;-57
2023/04/23 12:41:09;;;;;;;1.52;0.60;;;18.80;99.90;;;;;;7302188;32;20144;-57
2023/04/23 12:45:11;;;;;;;4.20;1.10;;;19.60;99.90;;;;;;7300745;32;20123;-57
2023/04/23 12:49:13;;;;;;;5.90;1.00;;;19.60;99.90;;;;;;7306831;32;20681;-58
2023/04/23 12:53:14;;;;;;;5.00;0.73;;;19.60;99.90;;;;;;7305862;32;20925;-57
2023/04/23 12:57:20;;;;;;;3.95;0.80;;;19.50;99.90;;;;;;7299715;32;20218;-57
2023/04/23 13:01:22;;;;;;;2.03;0.70;;;19.40;99.90;;;;;;7300969;32;20148;-56
2023/04/23 13:05:24;;;;;;;2.55;0.77;;;19.80;99.90;;;;;;7297997;32;20275;-57
2023/04/23 13:09:26;;;;;;;2.90;0.70;;;19.40;99.90;;;;;;7303216;32;20530;-57
2023/04/23 13:13:28;;;;;;;1.92;0.75;;;20.20;99.90;;;;;;7305466;32;20730;-58
2023/04/23 13:17:30;;;;;;;3.58;0.90;;;19.50;99.90;;;;;;7310509;32;20719;-56
2023/04/23 13:21:32;;;;;;;2.78;0.98;;;18.90;99.90;;;;;;7304539;32;20116;-57
2023/04/23 13:25:34;;;;;;;3.55;0.80;;;19.10;99.90;;;;;;7301113;32;20273;-57
2023/04/23 13:29:36;;;;;;;3.97;0.70;;;19.60;99.90;;;;;;7305665;32;20760;-57
2023/04/23 13:33:39;;;;;;;2.15;0.80;;;19.40;99.90;;;;;;7310217;32;20250;-57
2023/04/23 13:37:41;;;;;;;2.95;0.80;;;18.90;99.90;;;;;;7305790;32;20163;-57
2023/04/23 13:41:43;;;;;;;2.47;1.20;;;18.90;99.90;;;;;;7314962;32;20138;-57
2023/04/23 13:45:45;;;;;;;1.48;0.60;;;18.90;99.90;;;;;;7311909;32;20131;-56
2023/04/23 13:49:47;;;;;;;5.03;0.85;;;18.80;99.90;;;;;;7318973;32;20193;-56
2023/04/23 13:53:49;;;;;;;3.37;0.90;;;18.60;99.90;;;;;;7310592;32;20190;-56
2023/04/23 13:57:56;;;;;;;3.62;0.80;;;18.50;99.90;;;;;;7317812;32;20169;-57
2023/04/23 14:02:13;;;;;;;2.35;0.80;;;18.10;99.90;;;;;;7307272;32;20108;-58
2023/04/23 14:06:14;;;;;;;2.78;0.73;;;17.90;99.90;;;;;;7307475;32;20310;-57
2023/04/23 14:10:16;;;;;;;1.83;0.77;;;17.80;99.90;;;;;;7304154;32;20329;-57
2023/04/23 14:14:18;;;;;;;2.95;1.10;;;17.90;99.90;;;;;;7287503;32;22084;-57
2023/04/23 14:18:20;;;;;;;2.90;1.12;;;17.80;99.90;;;;;;7304809;32;20143;-57
2023/04/23 14:22:22;;;;;;;3.95;1.20;;;17.90;99.90;;;;;;7298161;32;20935;-58
2023/04/23 14:26:33;;;;;;;2.67;0.80;;;17.90;99.90;;;;;;7303460;32;20120;-56
2023/04/23 14:30:48;;;;;;;3.08;0.80;;;17.70;99.90;;;;;;7304324;32;20552;-58
2023/04/23 14:34:50;;;;;;;3.58;1.05;;;17.60;99.90;;;;;;7303830;32;20104;-57
2023/04/23 14:38:51;;;;;;;3.90;0.70;;;17.50;99.90;;;;;;7300806;32;20469;-57
2023/04/23 14:42:54;;;;;;;3.55;0.90;;;17.30;99.90;;;;;;7299404;32;20314;-58
2023/04/23 14:47:02;;;;;;;3.67;0.98;;;17.10;99.90;;;;;;7299967;32;20096;-58
2023/04/23 14:51:04;;;;;;;4.07;1.10;;;17.20;99.90;;;;;;7296569;32;20220;-57
2023/04/23 14:55:06;;;;;;;3.00;0.88;;;17.30;99.90;;;;;;7313141;32;20132;-58
2023/04/23 14:59:08;;;;;;;1.77;0.60;;;17.20;99.90;;;;;;7303346;32;20166;-58
2023/04/23 15:03:10;;;;;;;2.97;0.65;;;17.30;99.90;;;;;;7301309;32;20165;-56
2023/04/23 15:07:12;;;;;;;2.17;0.60;;;17.10;99.90;;;;;;7300114;32;20136;-57
2023/04/23 15:11:14;;;;;;;2.87;0.50;;;17.10;99.90;;;;;;7301343;32;20191;-56
2023/04/23 15:15:25;;;;;;;2.92;0.70;;;17.00;99.90;;;;;;7299697;32;20229;-58
2023/04/23 15:19:44;;;;;;;1.80;0.50;;;16.80;99.90;;;;;;7301230;32;20119;-57
2023/04/23 15:23:46;;;;;;;3.50;0.77;;;16.60;99.90;;;;;;7296707;32;20195;-57
2023/04/23 15:27:50;;;;;;;2.40;0.75;;;16.40;99.90;;;;;;7300035;32;20167;-57
2023/04/23 15:31:56;;;;;;;1.30;0.62;;;16.10;99.90;;;;;;7304097;32;20583;-57
2023/04/23 15:35:58;;;;;;;3.67;1.10;;;15.70;99.90;;;;;;7303733;32;20941;-57
2023/04/23 15:40:00;;;;;;;4.20;1.20;;;15.50;99.90;;;;;;7303482;32;20614;-56
2023/04/23 15:44:02;;;;;;;6.43;1.05;;;15.00;99.90;;;;;;7305883;32;20187;-57
2023/04/23 15:48:04;;;;;;;3.75;0.90;;;14.60;99.90;;;;;;7302488;32;20502;-57
2023/04/23 15:52:06;;;;;;;4.97;1.70;;;14.20;99.90;;;;;;7308966;32;20100;-56
2023/04/23 15:56:08;;;;;;;2.55;1.45;;;13.80;99.90;;;;;;7307973;32;20165;-58
2023/04/23 16:00:10;;;;;;;5.37;1.95;;;13.50;99.90;;;;;;7281603;32;20175;-57
2023/04/23 16:04:12;;;;;;;5.12;1.92;;;13.30;99.90;;;;;;7298992;32;20096;-57
2023/04/23 16:08:16;;;;;;;4.18;1.95;;;13.20;99.90;;;;;;7298924;32;20214;-57
2023/04/23 16:12:17;;;;;;;4.57;2.00;;;13.00;99.90;;;;;;7293104;32;20125;-58
2023/04/23 16:16:19;;;;;;;3.42;2.40;;;12.90;99.90;;;;;;7297560;32;20925;-58
2023/04/23 16:20:22;;;;;;;5.62;2.72;;;12.70;99.90;;;;;;7293306;32;20179;-57
2023/04/23 16:24:23;;;;;;;9.98;3.12;;;12.50;99.90;;;;;;7296320;32;20861;-55
2023/04/23 16:28:25;;;;;;;4.47;2.75;;;12.40;99.90;;;;;;7292621;32;20241;-57
2023/04/23 16:32:27;;;;;;;5.65;3.45;;;12.40;99.90;;;;;;7296766;32;20158;-55
2023/04/23 16:36:31;;;;;;;5.60;4.00;;;12.50;99.90;;;;;;7299208;32;20153;-57
2023/04/23 16:40:33;;;;;;;5.40;4.00;;;12.40;99.90;;;;;;7298218;32;22656;-55
2023/04/23 16:44:35;;;;;;;7.00;3.67;;;12.40;99.90;;;;;;7296518;32;20126;-56
2023/04/23 16:48:36;;;;;;;6.00;4.03;;;12.30;99.90;;;;;;7298353;32;21278;-56
2023/04/23 16:52:38;;;;;;;4.85;3.65;;;12.30;99.90;;;;;;7295218;32;20691;-57
2023/04/23 16:56:41;;;;;;;6.90;4.10;;;12.30;99.90;;;;;;7294370;32;20876;-57
2023/04/23 17:00:43;;;;;;;7.93;4.60;;;12.30;99.90;;;;;;7295040;32;20131;-57
2023/04/23 17:04:45;;;;;;;7.07;4.93;;;12.30;99.90;;;;;;7298654;32;20222;-57
2023/04/23 17:08:48;;;;;;;10.48;5.62;;;12.20;99.90;;;;;;7292286;32;20267;-58
2023/04/23 17:12:53;;;;;;;7.53;5.43;;;12.20;99.90;;;;;;7295315;32;20209;-59
2023/04/23 17:16:55;;;;;;;8.43;5.50;;;12.00;99.90;;;;;;7300791;32;20187;-54
2023/04/23 17:20:56;;;;;;;6.55;4.43;;;12.10;99.90;;;;;;7290773;32;20104;-56
2023/04/23 17:24:58;;;;;;;6.82;4.30;;;12.00;99.90;;;;;;7298837;32;20112;-58
2023/04/23 17:29:00;;;;;;;7.12;4.57;;;12.00;99.90;;;;;;7300193;32;20103;-57
2023/04/23 17:33:02;;;;;;;6.15;4.15;;;12.10;99.90;;;;;;7295876;32;20271;-57
2023/04/23 17:37:04;;;;;;;6.05;3.60;;;12.00;99.90;;;;;;7294051;32;20136;-57
2023/04/23 17:41:05;;;;;;;4.97;3.85;;;11.90;99.90;;;;;;7289486;32;20155;-56
2023/04/23 17:45:08;;;;;;;6.07;4.00;;;11.90;99.90;;;;;;7287792;32;20135;-56
2023/04/23 17:49:10;;;;;;;5.85;3.37;;;11.90;99.90;;;;;;7295723;32;20112;-56
2023/04/23 17:53:12;;;;;;;4.30;3.60;;;11.80;99.90;;;;;;7292517;32;20893;-57
2023/04/23 17:57:13;;;;;;;4.93;3.20;;;11.80;99.90;;;;;;7295163;32;20234;-56
2023/04/23 18:01:16;;;;;;;4.03;2.80;;;11.70;99.90;;;;;;7295575;32;20202;-56
2023/04/23 18:05:18;;;;;;;5.07;3.20;;;11.70;99.90;;;;;;7297688;32;20136;-57
2023/04/23 18:09:20;;;;;;;4.10;3.25;;;11.70;99.90;;;;;;7296714;32;20134;-56
2023/04/23 18:13:22;;;;;;;4.20;2.90;;;11.70;99.90;;;;;;7300231;32;20116;-57
2023/04/23 18:17:24;;;;;;;4.62;2.22;;;11.60;99.90;;;;;;7300142;32;20202;-59
2023/04/23 18:21:26;;;;;;;4.50;2.55;;;11.70;99.90;;;;;;7296345;32;20370;-58
2023/04/23 18:25:29;;;;;;;3.58;1.70;;;11.70;99.90;;;;;;7297344;32;20246;-57
2023/04/23 18:29:30;;;;;;;2.67;1.65;;;11.80;99.90;;;;;;7290966;32;20190;-57
2023/04/23 18:33:41;;;;;;;1.77;1.48;;;11.80;99.90;;;;;;7292539;32;20116;-57
2023/04/23 18:37:52;;;;;;;2.65;1.50;;;11.70;99.90;;;;;;7296569;32;20120;-57
2023/04/23 18:41:54;;;;;;;2.72;1.58;;;11.80;99.90;;;;;;7299541;32;20661;-57
2023/04/23 18:45:57;;;;;;;3.15;1.77;;;11.80;99.90;;;;;;7296478;32;20136;-59
2023/04/23 18:50:01;;;;;;;2.53;1.20;;;11.80;99.90;;;;;;7291175;32;20289;-57
2023/04/23 18:54:04;;;;;;;2.85;1.48;;;11.70;99.90;;;;;;7291074;32;20156;-56
2023/04/23 18:58:06;;;;;;;3.55;1.55;;;11.70;99.90;;;;;;7294720;32;20665;-56
2023/04/23 19:02:08;;;;;;;4.15;1.30;;;11.70;99.90;;;;;;7291862;32;20183;-56
2023/04/23 19:06:10;;;;;;;1.83;1.40;;;11.80;99.90;;;;;;7295677;32;20161;-56
2023/04/23 19:10:18;;;;;;;3.78;1.30;;;11.70;99.90;;;;;;7300866;32;21079;-56
2023/04/23 19:14:20;;;;;;;1.85;1.30;;;11.70;99.90;;;;;;7296196;32;20739;-55
2023/04/23 19:18:22;;;;;;;2.95;1.27;;;11.80;99.90;;;;;;7301319;32;20107;-55
2023/04/23 19:22:24;;;;;;;2.03;1.40;;;11.80;99.90;;;;;;7297488;32;20146;-56
2023/04/23 19:26:26;;;;;;;3.67;1.95;;;11.70;99.90;;;;;;7288690;32;20278;-56
2023/04/23 19:30:28;;;;;;;2.35;1.40;;;11.70;99.90;;;;;;7292830;32;20127;-56
2023/04/23 19:34:29;;;;;;;1.73;1.10;;;11.70;99.90;;;;;;7291774;32;20183;-56
2023/04/23 19:38:31;;;;;;;1.87;1.30;;;11.60;99.90;;;;;;7295065;32;20304;-55
2023/04/23 19:42:33;;;;;;;1.52;1.15;;;11.60;99.90;;;;;;7294006;32;20132;-56
2023/04/23 19:46:34;;;;;;;2.62;1.40;;;11.50;99.90;;;;;;7299016;32;20202;-56
2023/04/23 19:50:36;;;;;;;2.65;1.70;;;11.50;99.90;;;;;;7292300;32;20640;-56
2023/04/23 19:54:38;;;;;;;2.37;1.30;;;11.60;99.90;;;;;;7288938;32;20301;-57
2023/04/23 19:58:40;;;;;;;2.37;1.25;;;11.60;99.90;;;;;;7292505;32;20539;-56
2023/04/23 20:02:42;;;;;;;3.87;1.50;;;11.70;99.90;;;;;;7293057;32;20153;-57
2023/04/23 20:06:44;;;;;;;2.12;1.20;;;11.60;99.90;;;;;;7297851;32;20143;-55
2023/04/23 20:10:45;;;;;;;2.37;0.93;;;11.60;99.90;;;;;;7294770;32;20131;-56
2023/04/23 20:14:47;;;;;;;2.03;0.90;;;11.50;99.90;;;;;;7297908;32;20229;-55
2023/04/23 20:18:49;;;;;;;2.17;0.90;;;11.50;99.90;;;;;;7300475;32;20707;-55
2023/04/23 20:22:51;;;;;;;2.00;0.73;;;11.50;99.90;;;;;;7303123;32;20128;-55
2023/04/23 20:26:52;;;;;;;1.30;0.80;;;11.50;99.90;;;;;;7300210;32;20408;-55
2023/04/23 20:30:54;;;;;;;1.92;0.85;;;11.50;99.90;;;;;;7301480;32;20194;-55
2023/04/23 20:34:57;;;;;;;0.95;0.40;;;11.40;99.90;;;;;;7309041;32;20217;-55
2023/04/23 20:39:03;;;;;;;0.40;0.30;;;11.30;99.90;;;;;;7310339;32;20441;-56
2023/04/23 20:43:06;;;;;;;0.82;0.20;;;11.20;99.90;;;;;;7298504;32;20173;-55
2023/04/23 20:47:09;;;;;;;1.02;0.70;;;11.10;99.90;;;;;;7307028;32;20217;-55
2023/04/23 20:51:10;;;;;;;0.30;0.20;;;11.10;99.90;;;;;;7305667;32;20229;-56
2023/04/23 20:55:12;;;;;;;0.98;0.30;;;11.10;99.90;;;;;;7302681;32;20135;-56
2023/04/23 20:59:14;;;;;;;0.75;0.30;;;11.10;99.90;;;;;;7308214;32;20143;-55